sensor_id;sensor_type;location;lat;lon;timestamp;P1;durP1;ratioP1;P2;durP2;ratioP2
77278;SDS011;66332;50.436;15.378;2023-04-20T04:00:42;12.40;;;5.28;;
77278;SDS011;66332;50.436;15.378;2023-04-20T04:05:23;14.02;;;5.95;;
77278;SDS011;66332;50.436;15.378;2023-04-20T04:10:05;16.15;;;6.30;;
77278;SDS011;66332;50.436;15.378;2023-04-20T04:14:46;12.23;;;5.45;;
77278;SDS011;66332;50.436;15.378;2023-04-20T04:19:27;13.27;;;6.15;;
77278;SDS011;66332;50.436;15.378;2023-04-20T04:24:08;15.23;;;6.18;;
77278;SDS011;66332;50.436;15.378;2023-04-20T04:28:52;13.70;;;5.65;;
77278;SDS011;66332;50.436;15.378;2023-04-20T04:33:32;13.70;;;5.88;;
77278;SDS011;66332;50.436;15.378;2023-04-20T04:38:14;13.40;;;5.78;;
77278;SDS011;66332;50.436;15.378;2023-04-20T04:42:55;15.60;;;6.93;;
77278;SDS011;66332;50.436;15.378;2023-04-20T04:47:36;13.07;;;6.43;;
77278;SDS011;66332;50.436;15.378;2023-04-20T04:52:17;16.15;;;6.65;;
77278;SDS011;66332;50.436;15.378;2023-04-20T04:56:57;13.77;;;6.18;;
77278;SDS011;66332;50.436;15.378;2023-04-20T05:01:38;13.10;;;5.82;;
77278;SDS011;66332;50.436;15.378;2023-04-20T05:06:19;13.82;;;6.35;;
77278;SDS011;66332;50.436;15.378;2023-04-20T05:11:00;14.48;;;6.65;;
77278;SDS011;66332;50.436;15.378;2023-04-20T05:15:41;15.05;;;7.07;;
77278;SDS011;66332;50.436;15.378;2023-04-20T05:20:22;14.93;;;7.03;;
77278;SDS011;66332;50.436;15.378;2023-04-20T05:25:03;16.17;;;7.25;;
77278;SDS011;66332;50.436;15.378;2023-04-20T05:29:45;17.02;;;6.90;;
77278;SDS011;66332;50.436;15.378;2023-04-20T05:34:26;16.42;;;7.28;;
77278;SDS011;66332;50.436;15.378;2023-04-20T05:39:07;14.90;;;6.90;;
77278;SDS011;66332;50.436;15.378;2023-04-20T05:43:48;15.13;;;7.38;;
77278;SDS011;66332;50.436;15.378;2023-04-20T05:48:29;16.73;;;7.15;;
77278;SDS011;66332;50.436;15.378;2023-04-20T05:53:10;15.95;;;7.03;;
77278;SDS011;66332;50.436;15.378;2023-04-20T05:57:51;16.67;;;7.47;;
77278;SDS011;66332;50.436;15.378;2023-04-20T06:02:32;14.75;;;7.20;;
77278;SDS011;66332;50.436;15.378;2023-04-20T06:07:13;15.18;;;7.03;;
77278;SDS011;66332;50.436;15.378;2023-04-20T06:11:54;15.52;;;6.80;;
77278;SDS011;66332;50.436;15.378;2023-04-20T06:16:35;16.60;;;7.15;;
77278;SDS011;66332;50.436;15.378;2023-04-20T06:21:16;16.45;;;7.32;;
77278;SDS011;66332;50.436;15.378;2023-04-20T06:25:57;14.93;;;7.18;;
77278;SDS011;66332;50.436;15.378;2023-04-20T06:30:38;17.95;;;7.97;;
77278;SDS011;66332;50.436;15.378;2023-04-20T06:35:19;14.90;;;6.85;;
77278;SDS011;66332;50.436;15.378;2023-04-20T06:40:00;17.15;;;7.70;;
77278;SDS011;66332;50.436;15.378;2023-04-20T06:44:45;15.13;;;7.05;;
77278;SDS011;66332;50.436;15.378;2023-04-20T06:49:25;18.95;;;8.60;;
77278;SDS011;66332;50.436;15.378;2023-04-20T06:54:06;20.50;;;8.82;;
77278;SDS011;66332;50.436;15.378;2023-04-20T06:58:47;18.92;;;8.57;;
77278;SDS011;66332;50.436;15.378;2023-04-20T07:03:28;16.70;;;8.35;;
77278;SDS011;66332;50.436;15.378;2023-04-20T07:08:09;14.88;;;7.75;;
77278;SDS011;66332;50.436;15.378;2023-04-20T07:12:50;18.52;;;8.90;;
77278;SDS011;66332;50.436;15.378;2023-04-20T07:17:31;18.38;;;8.43;;
77278;SDS011;66332;50.436;15.378;2023-04-20T07:22:12;15.93;;;7.60;;
77278;SDS011;66332;50.436;15.378;2023-04-20T07:26:53;17.85;;;7.72;;
77278;SDS011;66332;50.436;15.378;2023-04-20T07:31:35;16.02;;;7.55;;
77278;SDS011;66332;50.436;15.378;2023-04-20T07:36:15;19.80;;;8.32;;
77278;SDS011;66332;50.436;15.378;2023-04-20T07:40:56;18.05;;;8.23;;
77278;SDS011;66332;50.436;15.378;2023-04-20T07:45:40;17.73;;;8.23;;
77278;SDS011;66332;50.436;15.378;2023-04-20T07:50:21;20.60;;;9.00;;
77278;SDS011;66332;50.436;15.378;2023-04-20T07:55:03;19.88;;;8.65;;
77278;SDS011;66332;50.436;15.378;2023-04-20T07:59:45;19.77;;;8.32;;
77278;SDS011;66332;50.436;15.378;2023-04-20T08:04:26;18.83;;;7.95;;
77278;SDS011;66332;50.436;15.378;2023-04-20T08:09:07;20.42;;;9.43;;
77278;SDS011;66332;50.436;15.378;2023-04-20T08:13:48;20.40;;;9.65;;
77278;SDS011;66332;50.436;15.378;2023-04-20T08:18:29;18.50;;;8.25;;
77278;SDS011;66332;50.436;15.378;2023-04-20T08:23:10;16.35;;;7.90;;
77278;SDS011;66332;50.436;15.378;2023-04-20T08:27:51;16.58;;;6.88;;
77278;SDS011;66332;50.436;15.378;2023-04-20T08:32:32;18.48;;;8.45;;
77278;SDS011;66332;50.436;15.378;2023-04-20T08:37:13;17.30;;;8.05;;
77278;SDS011;66332;50.436;15.378;2023-04-20T08:41:54;18.33;;;7.75;;
77278;SDS011;66332;50.436;15.378;2023-04-20T08:46:36;15.63;;;6.90;;
77278;SDS011;66332;50.436;15.378;2023-04-20T08:51:17;16.85;;;7.13;;
77278;SDS011;66332;50.436;15.378;2023-04-20T08:55:58;17.52;;;7.65;;
77278;SDS011;66332;50.436;15.378;2023-04-20T09:00:46;15.70;;;7.00;;
77278;SDS011;66332;50.436;15.378;2023-04-20T09:05:29;14.25;;;6.68;;
77278;SDS011;66332;50.436;15.378;2023-04-20T09:10:10;15.38;;;6.93;;
77278;SDS011;66332;50.436;15.378;2023-04-20T09:14:51;15.48;;;7.45;;
77278;SDS011;66332;50.436;15.378;2023-04-20T09:19:33;20.48;;;8.23;;
77278;SDS011;66332;50.436;15.378;2023-04-20T09:24:13;17.50;;;7.38;;
77278;SDS011;66332;50.436;15.378;2023-04-20T09:33:35;17.42;;;6.88;;
77278;SDS011;66332;50.436;15.378;2023-04-20T09:38:23;18.48;;;7.25;;
77278;SDS011;66332;50.436;15.378;2023-04-20T09:43:07;17.02;;;7.88;;
77278;SDS011;66332;50.436;15.378;2023-04-20T09:47:52;15.63;;;7.43;;
77278;SDS011;66332;50.436;15.378;2023-04-20T09:52:34;15.27;;;6.55;;
77278;SDS011;66332;50.436;15.378;2023-04-20T09:57:17;12.38;;;6.35;;
77278;SDS011;66332;50.436;15.378;2023-04-20T10:01:59;14.40;;;6.40;;
77278;SDS011;66332;50.436;15.378;2023-04-20T10:11:35;12.57;;;5.63;;
77278;SDS011;66332;50.436;15.378;2023-04-20T10:16:18;12.27;;;5.35;;
77278;SDS011;66332;50.436;15.378;2023-04-20T10:21:06;14.57;;;6.30;;
77278;SDS011;66332;50.436;15.378;2023-04-20T10:25:55;11.70;;;5.22;;
77278;SDS011;66332;50.436;15.378;2023-04-20T10:30:48;11.50;;;5.40;;
77278;SDS011;66332;50.436;15.378;2023-04-20T10:35:39;12.25;;;5.53;;
77278;SDS011;66332;50.436;15.378;2023-04-20T10:40:26;13.80;;;6.30;;
77278;SDS011;66332;50.436;15.378;2023-04-20T10:45:07;11.65;;;5.22;;
77278;SDS011;66332;50.436;15.378;2023-04-20T10:49:49;10.98;;;4.88;;
77278;SDS011;66332;50.436;15.378;2023-04-20T10:54:35;11.00;;;4.75;;
77278;SDS011;66332;50.436;15.378;2023-04-20T11:04:00;11.05;;;4.90;;
77278;SDS011;66332;50.436;15.378;2023-04-20T11:08:41;8.73;;;4.53;;
77278;SDS011;66332;50.436;15.378;2023-04-20T11:13:23;11.30;;;4.90;;
77278;SDS011;66332;50.436;15.378;2023-04-20T11:18:08;9.90;;;4.72;;
77278;SDS011;66332;50.436;15.378;2023-04-20T11:22:55;11.23;;;5.03;;
77278;SDS011;66332;50.436;15.378;2023-04-20T11:27:39;8.95;;;4.20;;
77278;SDS011;66332;50.436;15.378;2023-04-20T11:32:21;8.73;;;4.30;;
77278;SDS011;66332;50.436;15.378;2023-04-20T11:41:46;9.25;;;4.63;;
77278;SDS011;66332;50.436;15.378;2023-04-20T11:46:27;9.57;;;4.32;;
77278;SDS011;66332;50.436;15.378;2023-04-20T11:51:13;9.20;;;4.07;;
77278;SDS011;66332;50.436;15.378;2023-04-20T11:55:55;9.75;;;5.20;;
77278;SDS011;66332;50.436;15.378;2023-04-20T12:00:36;10.20;;;4.53;;
77278;SDS011;66332;50.436;15.378;2023-04-20T12:05:16;8.30;;;4.35;;
77278;SDS011;66332;50.436;15.378;2023-04-20T12:09:57;7.90;;;3.92;;
77278;SDS011;66332;50.436;15.378;2023-04-20T12:14:38;7.72;;;3.95;;
77278;SDS011;66332;50.436;15.378;2023-04-20T12:19:19;8.43;;;3.97;;
77278;SDS011;66332;50.436;15.378;2023-04-20T12:24:00;8.10;;;3.85;;
77278;SDS011;66332;50.436;15.378;2023-04-20T12:28:41;9.00;;;4.20;;
77278;SDS011;66332;50.436;15.378;2023-04-20T12:33:24;8.45;;;3.65;;
77278;SDS011;66332;50.436;15.378;2023-04-20T12:38:05;8.73;;;4.40;;
77278;SDS011;66332;50.436;15.378;2023-04-20T12:42:45;9.30;;;4.00;;
77278;SDS011;66332;50.436;15.378;2023-04-20T12:47:26;8.57;;;4.15;;
77278;SDS011;66332;50.436;15.378;2023-04-20T12:52:07;8.07;;;3.53;;
77278;SDS011;66332;50.436;15.378;2023-04-20T12:56:48;8.07;;;3.72;;
77278;SDS011;66332;50.436;15.378;2023-04-20T13:01:29;8.30;;;4.43;;
77278;SDS011;66332;50.436;15.378;2023-04-20T13:06:10;8.32;;;4.18;;
77278;SDS011;66332;50.436;15.378;2023-04-20T13:10:51;8.90;;;4.10;;
77278;SDS011;66332;50.436;15.378;2023-04-20T13:15:32;8.15;;;3.67;;
77278;SDS011;66332;50.436;15.378;2023-04-20T13:20:12;7.25;;;3.58;;
77278;SDS011;66332;50.436;15.378;2023-04-20T13:24:53;7.40;;;3.35;;
77278;SDS011;66332;50.436;15.378;2023-04-20T13:29:34;9.13;;;4.03;;
77278;SDS011;66332;50.436;15.378;2023-04-20T13:34:15;8.00;;;3.80;;
77278;SDS011;66332;50.436;15.378;2023-04-20T13:38:55;7.53;;;3.40;;
77278;SDS011;66332;50.436;15.378;2023-04-20T13:43:36;7.10;;;3.58;;
77278;SDS011;66332;50.436;15.378;2023-04-20T13:48:17;8.02;;;3.38;;
77278;SDS011;66332;50.436;15.378;2023-04-20T13:52:58;8.88;;;3.67;;
77278;SDS011;66332;50.436;15.378;2023-04-20T13:57:39;8.60;;;3.80;;
77278;SDS011;66332;50.436;15.378;2023-04-20T14:02:20;8.00;;;3.58;;
77278;SDS011;66332;50.436;15.378;2023-04-20T14:07:01;7.05;;;3.28;;
77278;SDS011;66332;50.436;15.378;2023-04-20T14:11:42;7.63;;;3.70;;
77278;SDS011;66332;50.436;15.378;2023-04-20T14:16:23;8.23;;;3.85;;
77278;SDS011;66332;50.436;15.378;2023-04-20T14:21:04;7.70;;;3.28;;
77278;SDS011;66332;50.436;15.378;2023-04-20T14:25:45;7.65;;;3.50;;
77278;SDS011;66332;50.436;15.378;2023-04-20T14:30:26;7.97;;;3.47;;
77278;SDS011;66332;50.436;15.378;2023-04-20T14:35:07;8.52;;;3.70;;
77278;SDS011;66332;50.436;15.378;2023-04-20T14:39:48;7.63;;;3.65;;
77278;SDS011;66332;50.436;15.378;2023-04-20T14:44:30;7.85;;;3.30;;
77278;SDS011;66332;50.436;15.378;2023-04-20T14:49:11;8.27;;;3.75;;
77278;SDS011;66332;50.436;15.378;2023-04-20T14:53:51;7.43;;;3.78;;
77278;SDS011;66332;50.436;15.378;2023-04-20T14:58:32;7.05;;;3.13;;
77278;SDS011;66332;50.436;15.378;2023-04-20T15:03:15;7.95;;;3.83;;
77278;SDS011;66332;50.436;15.378;2023-04-20T15:07:57;9.38;;;3.67;;
77278;SDS011;66332;50.436;15.378;2023-04-20T15:12:37;7.63;;;3.17;;
77278;SDS011;66332;50.436;15.378;2023-04-20T15:17:18;8.30;;;3.25;;
77278;SDS011;66332;50.436;15.378;2023-04-20T15:26:40;8.45;;;4.00;;
77278;SDS011;66332;50.436;15.378;2023-04-20T15:31:21;10.00;;;4.95;;
77278;SDS011;66332;50.436;15.378;2023-04-20T15:40:43;12.02;;;5.40;;
77278;SDS011;66332;50.436;15.378;2023-04-20T15:50:04;11.25;;;5.80;;
77278;SDS011;66332;50.436;15.378;2023-04-20T15:54:46;11.25;;;5.97;;
77278;SDS011;66332;50.436;15.378;2023-04-20T15:59:28;12.18;;;6.53;;
77278;SDS011;66332;50.436;15.378;2023-04-20T16:04:09;11.77;;;5.85;;
77278;SDS011;66332;50.436;15.378;2023-04-20T16:13:34;13.65;;;6.60;;
77278;SDS011;66332;50.436;15.378;2023-04-20T16:18:16;12.65;;;6.38;;
77278;SDS011;66332;50.436;15.378;2023-04-20T16:27:37;13.45;;;6.95;;
77278;SDS011;66332;50.436;15.378;2023-04-20T16:36:59;15.98;;;6.55;;
77278;SDS011;66332;50.436;15.378;2023-04-20T16:46:20;15.00;;;7.05;;
77278;SDS011;66332;50.436;15.378;2023-04-20T16:51:02;16.63;;;6.72;;
77278;SDS011;66332;50.436;15.378;2023-04-20T17:00:24;14.63;;;7.47;;
77278;SDS011;66332;50.436;15.378;2023-04-20T17:05:06;14.98;;;7.80;;
77278;SDS011;66332;50.436;15.378;2023-04-20T17:09:47;15.77;;;7.70;;
77278;SDS011;66332;50.436;15.378;2023-04-20T17:19:11;19.33;;;7.80;;
77278;SDS011;66332;50.436;15.378;2023-04-20T17:28:33;16.98;;;7.55;;
77278;SDS011;66332;50.436;15.378;2023-04-20T17:33:13;18.88;;;8.60;;
77278;SDS011;66332;50.436;15.378;2023-04-20T17:37:54;41.95;;;15.95;;
77278;SDS011;66332;50.436;15.378;2023-04-20T17:42:35;21.25;;;10.48;;
77278;SDS011;66332;50.436;15.378;2023-04-20T17:47:42;19.00;;;9.70;;
77278;SDS011;66332;50.436;15.378;2023-04-20T17:52:23;15.98;;;8.68;;
77278;SDS011;66332;50.436;15.378;2023-04-20T17:57:04;16.92;;;8.45;;
77278;SDS011;66332;50.436;15.378;2023-04-20T18:01:46;17.67;;;9.27;;
77278;SDS011;66332;50.436;15.378;2023-04-20T18:06:28;17.35;;;9.18;;
77278;SDS011;66332;50.436;15.378;2023-04-20T18:11:10;19.13;;;9.38;;
77278;SDS011;66332;50.436;15.378;2023-04-20T18:15:53;18.50;;;9.35;;
77278;SDS011;66332;50.436;15.378;2023-04-20T18:20:33;18.45;;;9.48;;
77278;SDS011;66332;50.436;15.378;2023-04-20T18:25:15;18.90;;;10.23;;
77278;SDS011;66332;50.436;15.378;2023-04-20T18:29:58;20.63;;;10.57;;
77278;SDS011;66332;50.436;15.378;2023-04-20T18:34:41;20.98;;;11.23;;
77278;SDS011;66332;50.436;15.378;2023-04-20T18:39:23;21.60;;;10.60;;
77278;SDS011;66332;50.436;15.378;2023-04-20T18:44:05;22.77;;;12.00;;
77278;SDS011;66332;50.436;15.378;2023-04-20T18:48:47;24.42;;;12.77;;
77278;SDS011;66332;50.436;15.378;2023-04-20T18:53:28;25.60;;;11.85;;
77278;SDS011;66332;50.436;15.378;2023-04-20T18:58:09;22.02;;;11.63;;
77278;SDS011;66332;50.436;15.378;2023-04-20T19:02:49;22.10;;;11.82;;
77278;SDS011;66332;50.436;15.378;2023-04-20T19:07:30;23.00;;;12.63;;
77278;SDS011;66332;50.436;15.378;2023-04-20T19:12:11;25.48;;;13.20;;
77278;SDS011;66332;50.436;15.378;2023-04-20T19:16:52;19.83;;;11.35;;
77278;SDS011;66332;50.436;15.378;2023-04-20T19:21:33;25.98;;;11.25;;
77278;SDS011;66332;50.436;15.378;2023-04-20T19:26:14;24.23;;;12.38;;
77278;SDS011;66332;50.436;15.378;2023-04-20T19:30:56;23.02;;;12.07;;
77278;SDS011;66332;50.436;15.378;2023-04-20T19:35:38;23.73;;;12.02;;
77278;SDS011;66332;50.436;15.378;2023-04-20T19:40:20;28.17;;;12.35;;
77278;SDS011;66332;50.436;15.378;2023-04-20T19:45:03;21.08;;;11.07;;
77278;SDS011;66332;50.436;15.378;2023-04-20T19:49:45;25.10;;;11.73;;
77278;SDS011;66332;50.436;15.378;2023-04-20T19:54:26;24.65;;;13.13;;
77278;SDS011;66332;50.436;15.378;2023-04-20T19:59:06;24.85;;;11.95;;
77278;SDS011;66332;50.436;15.378;2023-04-20T20:03:47;22.98;;;11.38;;
77278;SDS011;66332;50.436;15.378;2023-04-20T20:13:09;21.42;;;10.43;;
77278;SDS011;66332;50.436;15.378;2023-04-20T20:17:50;19.45;;;10.20;;
77278;SDS011;66332;50.436;15.378;2023-04-20T20:22:34;18.40;;;10.30;;
77278;SDS011;66332;50.436;15.378;2023-04-20T20:27:15;20.10;;;9.45;;
77278;SDS011;66332;50.436;15.378;2023-04-20T20:36:37;16.98;;;8.57;;
77278;SDS011;66332;50.436;15.378;2023-04-20T20:41:24;18.50;;;10.13;;
77278;SDS011;66332;50.436;15.378;2023-04-20T20:46:05;20.52;;;8.73;;
77278;SDS011;66332;50.436;15.378;2023-04-20T20:50:46;19.00;;;9.63;;
77278;SDS011;66332;50.436;15.378;2023-04-20T20:55:27;18.73;;;8.13;;
77278;SDS011;66332;50.436;15.378;2023-04-20T21:00:08;18.48;;;9.07;;
77278;SDS011;66332;50.436;15.378;2023-04-20T21:09:30;15.77;;;8.35;;
77278;SDS011;66332;50.436;15.378;2023-04-20T21:14:12;17.55;;;7.15;;
77278;SDS011;66332;50.436;15.378;2023-04-20T21:18:53;17.75;;;7.95;;
77278;SDS011;66332;50.436;15.378;2023-04-20T21:23:34;15.35;;;7.20;;
77278;SDS011;66332;50.436;15.378;2023-04-20T21:28:15;21.13;;;8.20;;
77278;SDS011;66332;50.436;15.378;2023-04-20T21:32:56;19.73;;;8.32;;
77278;SDS011;66332;50.436;15.378;2023-04-20T21:37:37;17.17;;;7.65;;
77278;SDS011;66332;50.436;15.378;2023-04-20T21:42:17;16.33;;;8.15;;
77278;SDS011;66332;50.436;15.378;2023-04-20T21:46:58;17.83;;;7.35;;
77278;SDS011;66332;50.436;15.378;2023-04-20T21:51:41;15.88;;;8.35;;
